sensor_id;sensor_type;location;lat;lon;timestamp;P1;durP1;ratioP1;P2;durP2;ratioP2
19384;SDS011;9828;54.122;17.974;2023-07-02T00:03:40;6.80;;;4.50;;
19384;SDS011;9828;54.122;17.974;2023-07-02T00:09:02;4.63;;;3.63;;
19384;SDS011;9828;54.122;17.974;2023-07-02T00:14:23;5.25;;;4.30;;
19384;SDS011;9828;54.122;17.974;2023-07-02T00:19:44;6.32;;;4.10;;
19384;SDS011;9828;54.122;17.974;2023-07-02T00:25:06;5.68;;;4.35;;
19384;SDS011;9828;54.122;17.974;2023-07-02T00:30:28;6.13;;;4.78;;
19384;SDS011;9828;54.122;17.974;2023-07-02T00:35:50;7.32;;;4.68;;
19384;SDS011;9828;54.122;17.974;2023-07-02T00:41:11;5.68;;;4.32;;
19384;SDS011;9828;54.122;17.974;2023-07-02T00:46:32;7.70;;;4.53;;
19384;SDS011;9828;54.122;17.974;2023-07-02T00:51:54;5.25;;;4.70;;
19384;SDS011;9828;54.122;17.974;2023-07-02T00:57:16;6.40;;;4.90;;
19384;SDS011;9828;54.122;17.974;2023-07-02T01:02:37;7.78;;;4.47;;
19384;SDS011;9828;54.122;17.974;2023-07-02T01:07:58;6.88;;;5.13;;
19384;SDS011;9828;54.122;17.974;2023-07-02T01:13:20;5.28;;;4.70;;
19384;SDS011;9828;54.122;17.974;2023-07-02T01:18:43;5.20;;;4.70;;
19384;SDS011;9828;54.122;17.974;2023-07-02T01:24:06;6.88;;;4.93;;
19384;SDS011;9828;54.122;17.974;2023-07-02T01:29:29;7.95;;;5.07;;
19384;SDS011;9828;54.122;17.974;2023-07-02T01:34:51;7.63;;;4.93;;
19384;SDS011;9828;54.122;17.974;2023-07-02T01:40:13;5.47;;;4.88;;
19384;SDS011;9828;54.122;17.974;2023-07-02T01:45:36;5.00;;;4.40;;
19384;SDS011;9828;54.122;17.974;2023-07-02T01:50:58;5.43;;;4.10;;
19384;SDS011;9828;54.122;17.974;2023-07-02T01:56:19;6.30;;;4.32;;
19384;SDS011;9828;54.122;17.974;2023-07-02T02:01:40;4.57;;;3.70;;
19384;SDS011;9828;54.122;17.974;2023-07-02T02:07:02;6.00;;;3.58;;
19384;SDS011;9828;54.122;17.974;2023-07-02T02:12:25;6.03;;;4.25;;
19384;SDS011;9828;54.122;17.974;2023-07-02T02:17:46;6.55;;;4.13;;
19384;SDS011;9828;54.122;17.974;2023-07-02T02:23:07;4.53;;;4.00;;
19384;SDS011;9828;54.122;17.974;2023-07-02T02:28:29;6.57;;;3.88;;
19384;SDS011;9828;54.122;17.974;2023-07-02T02:33:50;5.10;;;3.70;;
19384;SDS011;9828;54.122;17.974;2023-07-02T02:39:13;6.13;;;3.60;;
19384;SDS011;9828;54.122;17.974;2023-07-02T02:44:34;4.30;;;3.70;;
19384;SDS011;9828;54.122;17.974;2023-07-02T02:49:56;5.03;;;4.10;;
19384;SDS011;9828;54.122;17.974;2023-07-02T02:55:17;4.05;;;3.65;;
19384;SDS011;9828;54.122;17.974;2023-07-02T03:00:38;4.85;;;3.90;;
19384;SDS011;9828;54.122;17.974;2023-07-02T03:06:03;5.35;;;3.72;;
19384;SDS011;9828;54.122;17.974;2023-07-02T03:11:24;4.10;;;3.13;;
19384;SDS011;9828;54.122;17.974;2023-07-02T03:16:46;4.10;;;3.55;;
19384;SDS011;9828;54.122;17.974;2023-07-02T03:22:07;4.68;;;3.28;;
19384;SDS011;9828;54.122;17.974;2023-07-02T03:27:28;4.45;;;3.15;;
19384;SDS011;9828;54.122;17.974;2023-07-02T03:32:49;4.05;;;3.15;;
19384;SDS011;9828;54.122;17.974;2023-07-02T03:38:11;2.88;;;2.58;;
19384;SDS011;9828;54.122;17.974;2023-07-02T03:43:32;2.92;;;2.20;;
19384;SDS011;9828;54.122;17.974;2023-07-02T03:48:53;2.60;;;2.40;;
19384;SDS011;9828;54.122;17.974;2023-07-02T03:54:15;2.53;;;2.00;;
19384;SDS011;9828;54.122;17.974;2023-07-02T03:59:36;1.80;;;1.70;;
19384;SDS011;9828;54.122;17.974;2023-07-02T04:04:57;2.13;;;1.75;;
19384;SDS011;9828;54.122;17.974;2023-07-02T04:10:19;3.63;;;3.08;;
19384;SDS011;9828;54.122;17.974;2023-07-02T04:15:40;2.30;;;2.08;;
19384;SDS011;9828;54.122;17.974;2023-07-02T04:21:01;2.30;;;1.92;;
19384;SDS011;9828;54.122;17.974;2023-07-02T04:26:23;2.47;;;1.95;;
19384;SDS011;9828;54.122;17.974;2023-07-02T04:31:47;1.98;;;1.83;;
19384;SDS011;9828;54.122;17.974;2023-07-02T04:37:08;1.48;;;1.38;;
19384;SDS011;9828;54.122;17.974;2023-07-02T04:42:30;1.58;;;1.27;;
19384;SDS011;9828;54.122;17.974;2023-07-02T04:47:54;1.20;;;1.10;;
19384;SDS011;9828;54.122;17.974;2023-07-02T04:53:15;2.03;;;1.27;;
19384;SDS011;9828;54.122;17.974;2023-07-02T04:58:36;1.17;;;1.08;;
19384;SDS011;9828;54.122;17.974;2023-07-02T05:03:58;1.10;;;0.90;;
19384;SDS011;9828;54.122;17.974;2023-07-02T05:09:20;0.90;;;0.82;;
19384;SDS011;9828;54.122;17.974;2023-07-02T05:14:41;1.40;;;1.30;;
19384;SDS011;9828;54.122;17.974;2023-07-02T05:20:02;1.33;;;1.10;;
19384;SDS011;9828;54.122;17.974;2023-07-02T05:25:27;0.80;;;0.80;;
19384;SDS011;9828;54.122;17.974;2023-07-02T05:30:49;0.90;;;0.90;;
19384;SDS011;9828;54.122;17.974;2023-07-02T05:36:12;1.45;;;0.73;;
19384;SDS011;9828;54.122;17.974;2023-07-02T05:41:33;1.30;;;1.20;;
19384;SDS011;9828;54.122;17.974;2023-07-02T05:46:54;1.05;;;0.90;;
19384;SDS011;9828;54.122;17.974;2023-07-02T05:52:15;1.70;;;1.08;;
19384;SDS011;9828;54.122;17.974;2023-07-02T05:57:40;1.02;;;0.93;;
19384;SDS011;9828;54.122;17.974;2023-07-02T06:03:01;1.42;;;0.93;;
19384;SDS011;9828;54.122;17.974;2023-07-02T06:08:23;4.20;;;1.35;;
19384;SDS011;9828;54.122;17.974;2023-07-02T06:13:44;1.95;;;1.23;;
19384;SDS011;9828;54.122;17.974;2023-07-02T06:19:06;1.38;;;1.20;;
19384;SDS011;9828;54.122;17.974;2023-07-02T06:24:27;1.42;;;1.33;;
19384;SDS011;9828;54.122;17.974;2023-07-02T06:29:48;2.08;;;1.38;;
19384;SDS011;9828;54.122;17.974;2023-07-02T06:35:11;1.92;;;1.40;;
19384;SDS011;9828;54.122;17.974;2023-07-02T06:40:33;1.65;;;1.42;;
19384;SDS011;9828;54.122;17.974;2023-07-02T06:45:54;4.30;;;1.60;;
19384;SDS011;9828;54.122;17.974;2023-07-02T06:51:16;4.00;;;2.20;;
19384;SDS011;9828;54.122;17.974;2023-07-02T06:56:38;3.05;;;1.75;;
19384;SDS011;9828;54.122;17.974;2023-07-02T07:01:59;2.15;;;1.95;;
19384;SDS011;9828;54.122;17.974;2023-07-02T07:07:22;3.05;;;1.83;;
19384;SDS011;9828;54.122;17.974;2023-07-02T07:12:43;4.82;;;2.03;;
19384;SDS011;9828;54.122;17.974;2023-07-02T07:18:04;5.18;;;1.90;;
19384;SDS011;9828;54.122;17.974;2023-07-02T07:23:26;3.65;;;2.00;;
19384;SDS011;9828;54.122;17.974;2023-07-02T07:28:47;4.18;;;1.92;;
19384;SDS011;9828;54.122;17.974;2023-07-02T07:34:08;2.85;;;1.55;;
19384;SDS011;9828;54.122;17.974;2023-07-02T07:39:29;2.80;;;1.55;;
19384;SDS011;9828;54.122;17.974;2023-07-02T07:44:51;3.55;;;1.80;;
19384;SDS011;9828;54.122;17.974;2023-07-02T07:50:13;3.97;;;1.90;;
19384;SDS011;9828;54.122;17.974;2023-07-02T07:55:34;2.40;;;1.80;;
19384;SDS011;9828;54.122;17.974;2023-07-02T08:00:55;2.97;;;1.83;;
19384;SDS011;9828;54.122;17.974;2023-07-02T08:06:17;6.30;;;1.75;;
19384;SDS011;9828;54.122;17.974;2023-07-02T08:11:38;3.83;;;1.85;;
19384;SDS011;9828;54.122;17.974;2023-07-02T08:16:59;3.40;;;1.80;;
19384;SDS011;9828;54.122;17.974;2023-07-02T08:22:20;6.05;;;1.90;;
19384;SDS011;9828;54.122;17.974;2023-07-02T08:27:42;2.65;;;1.67;;
19384;SDS011;9828;54.122;17.974;2023-07-02T08:33:03;3.88;;;1.90;;
19384;SDS011;9828;54.122;17.974;2023-07-02T08:38:25;3.55;;;1.55;;
19384;SDS011;9828;54.122;17.974;2023-07-02T08:43:46;5.65;;;1.90;;
19384;SDS011;9828;54.122;17.974;2023-07-02T08:49:09;6.57;;;1.67;;
19384;SDS011;9828;54.122;17.974;2023-07-02T08:54:31;4.63;;;1.70;;
19384;SDS011;9828;54.122;17.974;2023-07-02T08:59:52;5.35;;;1.90;;
19384;SDS011;9828;54.122;17.974;2023-07-02T09:05:13;11.13;;;2.13;;
19384;SDS011;9828;54.122;17.974;2023-07-02T09:10:35;5.78;;;2.10;;
19384;SDS011;9828;54.122;17.974;2023-07-02T09:15:56;6.60;;;1.80;;
19384;SDS011;9828;54.122;17.974;2023-07-02T09:21:18;3.17;;;1.95;;
19384;SDS011;9828;54.122;17.974;2023-07-02T09:26:43;4.13;;;1.90;;
19384;SDS011;9828;54.122;17.974;2023-07-02T09:32:05;5.53;;;2.10;;
19384;SDS011;9828;54.122;17.974;2023-07-02T09:37:31;8.18;;;2.13;;
19384;SDS011;9828;54.122;17.974;2023-07-02T09:42:53;6.28;;;2.13;;
19384;SDS011;9828;54.122;17.974;2023-07-02T09:48:16;4.85;;;2.22;;
19384;SDS011;9828;54.122;17.974;2023-07-02T09:53:38;4.68;;;2.25;;
19384;SDS011;9828;54.122;17.974;2023-07-02T09:58:59;5.65;;;2.35;;
19384;SDS011;9828;54.122;17.974;2023-07-02T10:04:21;3.75;;;2.20;;
19384;SDS011;9828;54.122;17.974;2023-07-02T10:09:46;4.97;;;2.20;;
19384;SDS011;9828;54.122;17.974;2023-07-02T10:15:07;2.80;;;1.98;;
19384;SDS011;9828;54.122;17.974;2023-07-02T10:20:36;3.42;;;2.42;;
19384;SDS011;9828;54.122;17.974;2023-07-02T10:26:09;3.33;;;2.00;;
19384;SDS011;9828;54.122;17.974;2023-07-02T10:31:47;5.18;;;1.98;;
19384;SDS011;9828;54.122;17.974;2023-07-02T10:37:09;4.53;;;1.95;;
19384;SDS011;9828;54.122;17.974;2023-07-02T10:42:30;3.03;;;2.22;;
19384;SDS011;9828;54.122;17.974;2023-07-02T10:47:53;3.17;;;2.20;;
19384;SDS011;9828;54.122;17.974;2023-07-02T10:53:18;4.72;;;2.10;;
19384;SDS011;9828;54.122;17.974;2023-07-02T10:58:42;6.85;;;2.67;;
19384;SDS011;9828;54.122;17.974;2023-07-02T11:04:04;7.93;;;2.75;;
19384;SDS011;9828;54.122;17.974;2023-07-02T11:09:26;4.35;;;2.70;;
19384;SDS011;9828;54.122;17.974;2023-07-02T11:14:47;5.35;;;2.70;;
19384;SDS011;9828;54.122;17.974;2023-07-02T11:20:12;7.82;;;2.80;;
19384;SDS011;9828;54.122;17.974;2023-07-02T11:25:35;3.85;;;2.15;;
19384;SDS011;9828;54.122;17.974;2023-07-02T11:30:56;8.25;;;3.13;;
19384;SDS011;9828;54.122;17.974;2023-07-02T11:36:19;4.63;;;2.75;;
19384;SDS011;9828;54.122;17.974;2023-07-02T11:41:43;4.18;;;2.65;;
19384;SDS011;9828;54.122;17.974;2023-07-02T11:47:06;6.57;;;2.75;;
19384;SDS011;9828;54.122;17.974;2023-07-02T11:52:27;8.77;;;2.70;;
19384;SDS011;9828;54.122;17.974;2023-07-02T11:57:48;4.47;;;2.60;;
19384;SDS011;9828;54.122;17.974;2023-07-02T12:03:10;6.28;;;2.80;;
19384;SDS011;9828;54.122;17.974;2023-07-02T12:08:31;5.10;;;3.05;;
19384;SDS011;9828;54.122;17.974;2023-07-02T12:13:52;5.90;;;3.13;;
19384;SDS011;9828;54.122;17.974;2023-07-02T12:19:13;3.22;;;2.33;;
19384;SDS011;9828;54.122;17.974;2023-07-02T12:24:35;7.80;;;3.33;;
19384;SDS011;9828;54.122;17.974;2023-07-02T12:29:57;5.28;;;3.10;;
19384;SDS011;9828;54.122;17.974;2023-07-02T12:35:19;9.80;;;3.08;;
19384;SDS011;9828;54.122;17.974;2023-07-02T12:40:41;13.43;;;4.78;;
19384;SDS011;9828;54.122;17.974;2023-07-02T12:46:02;6.60;;;3.65;;
19384;SDS011;9828;54.122;17.974;2023-07-02T12:51:24;6.75;;;3.58;;
19384;SDS011;9828;54.122;17.974;2023-07-02T12:56:45;6.03;;;3.10;;
19384;SDS011;9828;54.122;17.974;2023-07-02T13:02:06;11.60;;;4.10;;
19384;SDS011;9828;54.122;17.974;2023-07-02T13:07:30;9.10;;;3.90;;
19384;SDS011;9828;54.122;17.974;2023-07-02T13:12:51;8.05;;;4.22;;
19384;SDS011;9828;54.122;17.974;2023-07-02T13:18:13;14.68;;;4.22;;
19384;SDS011;9828;54.122;17.974;2023-07-02T13:23:34;8.50;;;4.35;;
19384;SDS011;9828;54.122;17.974;2023-07-02T13:28:55;10.10;;;4.97;;
19384;SDS011;9828;54.122;17.974;2023-07-02T13:34:16;10.35;;;4.13;;
19384;SDS011;9828;54.122;17.974;2023-07-02T13:39:38;8.45;;;4.05;;
19384;SDS011;9828;54.122;17.974;2023-07-02T13:44:59;8.10;;;3.50;;
19384;SDS011;9828;54.122;17.974;2023-07-02T13:50:20;13.57;;;3.95;;
19384;SDS011;9828;54.122;17.974;2023-07-02T13:55:42;6.97;;;3.60;;
19384;SDS011;9828;54.122;17.974;2023-07-02T14:01:04;11.80;;;4.15;;
19384;SDS011;9828;54.122;17.974;2023-07-02T14:06:25;8.30;;;4.10;;
19384;SDS011;9828;54.122;17.974;2023-07-02T14:11:46;9.75;;;4.10;;
19384;SDS011;9828;54.122;17.974;2023-07-02T14:17:08;10.95;;;4.35;;
19384;SDS011;9828;54.122;17.974;2023-07-02T14:22:29;8.75;;;4.90;;
19384;SDS011;9828;54.122;17.974;2023-07-02T14:27:50;6.70;;;4.15;;
19384;SDS011;9828;54.122;17.974;2023-07-02T14:33:11;11.70;;;4.20;;
19384;SDS011;9828;54.122;17.974;2023-07-02T14:38:33;9.88;;;4.20;;
19384;SDS011;9828;54.122;17.974;2023-07-02T14:43:55;10.85;;;4.43;;
19384;SDS011;9828;54.122;17.974;2023-07-02T14:49:16;11.57;;;5.20;;
19384;SDS011;9828;54.122;17.974;2023-07-02T14:54:38;12.85;;;4.93;;
19384;SDS011;9828;54.122;17.974;2023-07-02T14:59:59;11.00;;;5.40;;
19384;SDS011;9828;54.122;17.974;2023-07-02T15:05:20;10.48;;;5.13;;
19384;SDS011;9828;54.122;17.974;2023-07-02T15:10:47;11.98;;;4.80;;
19384;SDS011;9828;54.122;17.974;2023-07-02T15:16:09;10.15;;;4.82;;
19384;SDS011;9828;54.122;17.974;2023-07-02T15:21:31;10.00;;;4.97;;
19384;SDS011;9828;54.122;17.974;2023-07-02T15:26:52;10.85;;;5.30;;
19384;SDS011;9828;54.122;17.974;2023-07-02T15:32:13;11.95;;;5.03;;
19384;SDS011;9828;54.122;17.974;2023-07-02T15:37:35;10.45;;;5.18;;
19384;SDS011;9828;54.122;17.974;2023-07-02T15:42:56;11.88;;;4.90;;
19384;SDS011;9828;54.122;17.974;2023-07-02T15:48:17;12.50;;;5.43;;
19384;SDS011;9828;54.122;17.974;2023-07-02T15:53:40;9.50;;;4.53;;
19384;SDS011;9828;54.122;17.974;2023-07-02T15:59:02;8.43;;;4.80;;
19384;SDS011;9828;54.122;17.974;2023-07-02T16:04:26;9.63;;;4.65;;
19384;SDS011;9828;54.122;17.974;2023-07-02T16:09:47;10.73;;;4.93;;
19384;SDS011;9828;54.122;17.974;2023-07-02T16:15:09;11.45;;;4.40;;
19384;SDS011;9828;54.122;17.974;2023-07-02T16:20:30;12.05;;;4.25;;
19384;SDS011;9828;54.122;17.974;2023-07-02T16:26:02;6.05;;;3.38;;
19384;SDS011;9828;54.122;17.974;2023-07-02T16:31:25;11.07;;;4.53;;
19384;SDS011;9828;54.122;17.974;2023-07-02T16:36:46;10.20;;;3.78;;
19384;SDS011;9828;54.122;17.974;2023-07-02T16:42:08;6.90;;;3.63;;
19384;SDS011;9828;54.122;17.974;2023-07-02T16:47:32;10.00;;;3.20;;
19384;SDS011;9828;54.122;17.974;2023-07-02T16:52:54;5.85;;;2.80;;
19384;SDS011;9828;54.122;17.974;2023-07-02T16:58:15;8.45;;;3.70;;
19384;SDS011;9828;54.122;17.974;2023-07-02T17:03:37;11.73;;;3.53;;
19384;SDS011;9828;54.122;17.974;2023-07-02T17:14:42;9.30;;;3.13;;
19384;SDS011;9828;54.122;17.974;2023-07-02T17:20:05;8.48;;;3.00;;
19384;SDS011;9828;54.122;17.974;2023-07-02T17:25:27;9.52;;;2.83;;
19384;SDS011;9828;54.122;17.974;2023-07-02T17:30:49;6.72;;;2.60;;
19384;SDS011;9828;54.122;17.974;2023-07-02T17:36:15;8.98;;;3.25;;
19384;SDS011;9828;54.122;17.974;2023-07-02T17:41:37;15.95;;;3.03;;
19384;SDS011;9828;54.122;17.974;2023-07-02T17:46:59;5.55;;;2.85;;
19384;SDS011;9828;54.122;17.974;2023-07-02T17:52:21;5.10;;;2.88;;
19384;SDS011;9828;54.122;17.974;2023-07-02T17:57:43;8.52;;;2.75;;
19384;SDS011;9828;54.122;17.974;2023-07-02T18:03:04;5.43;;;2.67;;
19384;SDS011;9828;54.122;17.974;2023-07-02T18:08:26;5.00;;;2.63;;
19384;SDS011;9828;54.122;17.974;2023-07-02T18:13:48;7.93;;;2.83;;
19384;SDS011;9828;54.122;17.974;2023-07-02T18:19:09;6.65;;;2.28;;
19384;SDS011;9828;54.122;17.974;2023-07-02T18:24:31;4.53;;;2.13;;
19384;SDS011;9828;54.122;17.974;2023-07-02T18:29:54;4.70;;;2.45;;
19384;SDS011;9828;54.122;17.974;2023-07-02T18:35:15;4.88;;;2.35;;
19384;SDS011;9828;54.122;17.974;2023-07-02T18:40:38;8.85;;;3.03;;
19384;SDS011;9828;54.122;17.974;2023-07-02T18:46:00;5.00;;;2.33;;
19384;SDS011;9828;54.122;17.974;2023-07-02T18:51:22;5.28;;;2.00;;
19384;SDS011;9828;54.122;17.974;2023-07-02T18:56:43;6.53;;;2.85;;
19384;SDS011;9828;54.122;17.974;2023-07-02T19:02:05;5.35;;;2.33;;
19384;SDS011;9828;54.122;17.974;2023-07-02T19:07:27;6.88;;;2.55;;
19384;SDS011;9828;54.122;17.974;2023-07-02T19:12:48;3.95;;;2.28;;
19384;SDS011;9828;54.122;17.974;2023-07-02T19:18:10;8.63;;;2.83;;
19384;SDS011;9828;54.122;17.974;2023-07-02T19:23:31;6.45;;;2.55;;
19384;SDS011;9828;54.122;17.974;2023-07-02T19:28:52;6.22;;;2.97;;
19384;SDS011;9828;54.122;17.974;2023-07-02T19:34:15;5.78;;;2.65;;
19384;SDS011;9828;54.122;17.974;2023-07-02T19:39:39;5.97;;;2.42;;
19384;SDS011;9828;54.122;17.974;2023-07-02T19:45:01;7.30;;;2.10;;
19384;SDS011;9828;54.122;17.974;2023-07-02T19:50:22;6.22;;;2.50;;
19384;SDS011;9828;54.122;17.974;2023-07-02T19:55:44;5.80;;;2.42;;
19384;SDS011;9828;54.122;17.974;2023-07-02T20:01:09;5.13;;;2.38;;
19384;SDS011;9828;54.122;17.974;2023-07-02T20:06:33;7.00;;;2.35;;
19384;SDS011;9828;54.122;17.974;2023-07-02T20:11:55;4.53;;;2.28;;
19384;SDS011;9828;54.122;17.974;2023-07-02T20:17:16;5.80;;;2.55;;
19384;SDS011;9828;54.122;17.974;2023-07-02T20:22:39;6.15;;;2.20;;
19384;SDS011;9828;54.122;17.974;2023-07-02T20:28:04;5.32;;;2.70;;
19384;SDS011;9828;54.122;17.974;2023-07-02T20:33:25;7.78;;;2.80;;
19384;SDS011;9828;54.122;17.974;2023-07-02T20:38:46;7.35;;;2.63;;
19384;SDS011;9828;54.122;17.974;2023-07-02T20:44:07;4.32;;;1.98;;
19384;SDS011;9828;54.122;17.974;2023-07-02T20:49:29;6.13;;;2.25;;
19384;SDS011;9828;54.122;17.974;2023-07-02T20:54:54;7.05;;;2.70;;
19384;SDS011;9828;54.122;17.974;2023-07-02T21:00:16;3.80;;;1.80;;
19384;SDS011;9828;54.122;17.974;2023-07-02T21:05:37;5.50;;;2.03;;
19384;SDS011;9828;54.122;17.974;2023-07-02T21:10:58;2.95;;;1.90;;
19384;SDS011;9828;54.122;17.974;2023-07-02T21:16:19;6.53;;;1.90;;
19384;SDS011;9828;54.122;17.974;2023-07-02T21:21:41;4.70;;;2.33;;
19384;SDS011;9828;54.122;17.974;2023-07-02T21:27:06;4.18;;;2.50;;
19384;SDS011;9828;54.122;17.974;2023-07-02T21:32:28;9.80;;;3.05;;
19384;SDS011;9828;54.122;17.974;2023-07-02T21:37:49;6.10;;;2.60;;
19384;SDS011;9828;54.122;17.974;2023-07-02T21:43:10;6.22;;;2.55;;
19384;SDS011;9828;54.122;17.974;2023-07-02T21:48:31;8.52;;;2.63;;
19384;SDS011;9828;54.122;17.974;2023-07-02T21:53:53;8.18;;;3.58;;
19384;SDS011;9828;54.122;17.974;2023-07-02T21:59:15;6.63;;;2.83;;
19384;SDS011;9828;54.122;17.974;2023-07-02T22:04:40;4.57;;;2.63;;
19384;SDS011;9828;54.122;17.974;2023-07-02T22:10:01;5.95;;;2.80;;
19384;SDS011;9828;54.122;17.974;2023-07-02T22:15:22;5.45;;;2.75;;
19384;SDS011;9828;54.122;17.974;2023-07-02T22:20:45;10.05;;;2.80;;
19384;SDS011;9828;54.122;17.974;2023-07-02T22:26:07;5.60;;;2.75;;
19384;SDS011;9828;54.122;17.974;2023-07-02T22:31:29;4.72;;;2.70;;
19384;SDS011;9828;54.122;17.974;2023-07-02T22:36:51;5.03;;;2.45;;
19384;SDS011;9828;54.122;17.974;2023-07-02T22:42:12;5.13;;;2.78;;
19384;SDS011;9828;54.122;17.974;2023-07-02T22:47:34;9.57;;;3.15;;
19384;SDS011;9828;54.122;17.974;2023-07-02T22:52:56;5.35;;;2.40;;
19384;SDS011;9828;54.122;17.974;2023-07-02T22:58:17;6.13;;;2.60;;
19384;SDS011;9828;54.122;17.974;2023-07-02T23:03:38;4.32;;;2.65;;
19384;SDS011;9828;54.122;17.974;2023-07-02T23:08:59;4.63;;;2.67;;
19384;SDS011;9828;54.122;17.974;2023-07-02T23:14:21;7.63;;;3.22;;
19384;SDS011;9828;54.122;17.974;2023-07-02T23:19:42;5.68;;;3.05;;
19384;SDS011;9828;54.122;17.974;2023-07-02T23:25:04;6.75;;;2.88;;
19384;SDS011;9828;54.122;17.974;2023-07-02T23:30:29;8.00;;;3.35;;
19384;SDS011;9828;54.122;17.974;2023-07-02T23:35:57;5.00;;;2.97;;
19384;SDS011;9828;54.122;17.974;2023-07-02T23:41:20;6.68;;;3.25;;
19384;SDS011;9828;54.122;17.974;2023-07-02T23:46:43;5.68;;;2.50;;
19384;SDS011;9828;54.122;17.974;2023-07-02T23:52:04;6.35;;;2.85;;
19384;SDS011;9828;54.122;17.974;2023-07-02T23:57:26;6.50;;;2.83;;
